This is the latest recevied weather packets stored in our database for station/object DD6UBW. If no packets are shown the sender has not sent any weather packets the latest 10 day(s).
| Time | Temp. | Humidity | Pressure | Rain* | Wind** | Luminosity | Snow |
|---|---|---|---|---|---|---|---|
| 1787931001 | 21.67° C | 78% | 1007.6 hPa | 0 mm | - | - | - |
| 1787929205 | 22.22° C | 73% | 1008.6 hPa | 0 mm | - | - | - |
| 1787927401 | 23.33° C | 68% | 1009.6 hPa | 0 mm | - | - | - |
| 1787925603 | 23.33° C | 65% | 1009.6 hPa | 0 mm | - | - | - |
| 1787923802 | 23.89° C | 63% | 1009.6 hPa | 0 mm | - | - | - |
| 1787922001 | 23.89° C | 64% | 1009.6 hPa | 0 mm | - | - | - |
| 1787920201 | 23.33° C | 62% | 1008.6 hPa | 0 mm | - | - | - |
| 1787918401 | 23.89° C | 61% | 1008.6 hPa | 0 mm | - | - | - |
| 1787916601 | 23.89° C | 60% | 1008.6 hPa | 0 mm | - | - | - |
| 1787914801 | 23.89° C | 58% | 1008.6 hPa | 0 mm | - | - | - |
| 1787913001 | 25° C | 57% | 1009.6 hPa | 0 mm | - | - | - |
| 1787911203 | 23.89° C | 58% | 1009.6 hPa | 0 mm | - | - | - |
| 1787909400 | 23.89° C | 58% | 1008.6 hPa | 0 mm | - | - | - |
| 1787907600 | 22.78° C | 59% | 1009.6 hPa | 0 mm | - | - | - |
| 1787905801 | 21.67° C | 59% | 1009.6 hPa | 0 mm | - | - | - |
| 1787904002 | 20.56° C | 61% | 1009.6 hPa | 0 mm | - | - | - |
| 1787902201 | 19.44° C | 62% | 1009.6 hPa | 0 mm | - | - | - |
| 1787900401 | 19.44° C | 62% | 1009.6 hPa | 0 mm | - | - | - |
| 1787898601 | 18.89° C | 63% | 1010.6 hPa | 0 mm | - | - | - |
| 1787896801 | 18.89° C | 62% | 1011.6 hPa | 0 mm | - | - | - |
| 1787895001 | 18.33° C | 62% | 1011.6 hPa | 0 mm | - | - | - |
| 1787893202 | 18.33° C | 61% | 1012.6 hPa | 0 mm | - | - | - |
| 1787891400 | 18.33° C | 61% | 1011.6 hPa | 0 mm | - | - | - |
| 1787889601 | 18.33° C | 61% | 1011.6 hPa | 0 mm | - | - | - |
| 1787887802 | 18.33° C | 61% | 1011.6 hPa | 0 mm | - | - | - |
* Rain since midnight (hover to see other rain measurements)
** Current wind speed in m/s (hover to see current wind gust speed)